createdAt,value
2024-02-16T00:00:19.977Z,6.89
2024-02-16T00:03:13.105Z,6.83
2024-02-16T00:05:47.534Z,6.78
2024-02-16T00:08:16.481Z,6.76
2024-02-16T00:10:45.937Z,6.74
2024-02-16T00:13:14.315Z,6.75
2024-02-16T00:15:43.315Z,6.78
2024-02-16T00:18:11.820Z,6.77
2024-02-16T00:20:39.852Z,6.73
2024-02-16T00:23:09.406Z,6.67
2024-02-16T00:25:37.956Z,6.65
2024-02-16T00:28:07.081Z,6.63
2024-02-16T00:30:35.447Z,6.68
2024-02-16T00:33:04.110Z,6.71
2024-02-16T00:35:34.586Z,6.73
2024-02-16T00:38:03.267Z,6.72
2024-02-16T00:40:36.161Z,6.76
2024-02-16T00:43:06.247Z,6.72
2024-02-16T00:45:35.291Z,6.75
2024-02-16T00:48:05.190Z,6.72
2024-02-16T00:50:33.394Z,6.68
2024-02-16T00:53:01.629Z,6.55
2024-02-16T00:55:29.839Z,6.60
2024-02-16T00:58:00.577Z,6.58
2024-02-16T01:00:29.383Z,6.67
2024-02-16T01:02:57.601Z,6.64
2024-02-16T01:05:25.970Z,6.60
2024-02-16T01:07:54.696Z,6.64
2024-02-16T01:10:22.997Z,6.66
2024-02-16T01:12:53.195Z,6.61
2024-02-16T01:18:46.937Z,6.61
2024-02-16T01:22:06.409Z,6.51
2024-02-16T01:25:00.602Z,6.54
2024-02-16T01:27:29.890Z,6.49
2024-02-16T01:29:58.276Z,6.45
2024-02-16T01:32:28.409Z,6.46
2024-02-16T01:34:59.742Z,6.39
2024-02-16T01:37:28.317Z,6.24
2024-02-16T01:39:55.891Z,6.20
2024-02-16T01:42:25.983Z,6.17
2024-02-16T01:44:54.021Z,6.08
2024-02-16T01:47:22.714Z,6.24
2024-02-16T01:49:52.767Z,6.26
2024-02-16T01:52:21.153Z,6.18
2024-02-16T01:54:49.902Z,6.14
2024-02-16T01:57:18.097Z,6.00
2024-02-16T01:59:46.980Z,6.05
2024-02-16T02:02:15.376Z,5.94
2024-02-16T02:04:43.735Z,5.80
2024-02-16T02:07:18.443Z,5.73
2024-02-16T02:09:46.866Z,5.81
2024-02-16T02:12:15.012Z,5.68
2024-02-16T02:14:43.401Z,5.77
2024-02-16T02:17:12.245Z,5.82
2024-02-16T02:19:40.982Z,5.76
2024-02-16T02:22:17.206Z,5.84
2024-02-16T02:24:45.646Z,5.80
2024-02-16T02:27:15.101Z,5.87
2024-02-16T02:29:43.503Z,5.87
2024-02-16T02:32:11.856Z,6.00
2024-02-16T02:34:41.242Z,5.96
2024-02-16T02:37:10.115Z,5.79
2024-02-16T02:39:39.960Z,5.82
2024-02-16T02:42:10.594Z,5.79
2024-02-16T02:44:38.930Z,5.70
2024-02-16T02:47:08.233Z,5.58
2024-02-16T02:49:37.965Z,5.49
2024-02-16T02:52:08.010Z,5.60
2024-02-16T02:54:36.472Z,5.74
2024-02-16T02:57:06.665Z,5.73
2024-02-16T02:59:36.293Z,5.77
2024-02-16T03:02:04.542Z,5.71
2024-02-16T03:04:34.844Z,5.56
2024-02-16T03:07:04.153Z,5.37
2024-02-16T03:09:32.581Z,5.21
2024-02-16T03:12:01.297Z,5.39
2024-02-16T03:14:30.750Z,5.53
2024-02-16T03:16:58.756Z,5.51
2024-02-16T03:19:27.542Z,5.39
2024-02-16T03:21:55.595Z,5.57
2024-02-16T03:24:23.812Z,5.75
2024-02-16T03:26:51.891Z,5.61
2024-02-16T03:29:20.157Z,5.71
2024-02-16T03:31:49.562Z,5.63
2024-02-16T03:34:18.253Z,5.68
2024-02-16T03:36:46.651Z,5.60
2024-02-16T03:39:21.283Z,5.75
2024-02-16T03:41:50.307Z,5.72
2024-02-16T03:44:18.437Z,5.70
2024-02-16T03:46:46.533Z,5.73
2024-02-16T03:49:16.485Z,5.74
2024-02-16T03:51:44.953Z,5.81
2024-02-16T03:54:13.186Z,5.65
2024-02-16T03:56:41.225Z,5.68
2024-02-16T03:59:11.038Z,5.73
2024-02-16T04:01:40.158Z,5.81
2024-02-16T04:04:08.330Z,5.66
2024-02-16T04:06:38.045Z,5.59
2024-02-16T04:09:07.762Z,5.44
2024-02-16T04:11:36.853Z,5.61
2024-02-16T04:14:06.472Z,5.61
2024-02-16T04:16:35.802Z,5.49
2024-02-16T04:19:04.349Z,5.51
2024-02-16T04:21:32.914Z,5.30
2024-02-16T04:24:03.398Z,5.17
2024-02-16T04:26:32.018Z,5.14
2024-02-16T04:29:00.114Z,5.16
2024-02-16T04:31:28.674Z,4.88
2024-02-16T04:33:56.706Z,5.01
2024-02-16T04:36:24.948Z,4.95
2024-02-16T04:38:54.025Z,5.13
2024-02-16T04:41:23.724Z,5.10
2024-02-16T04:43:51.912Z,5.35
2024-02-16T04:46:20.695Z,5.40
2024-02-16T04:48:49.565Z,5.55
2024-02-16T04:51:18.812Z,5.59
2024-02-16T04:53:47.500Z,5.60
2024-02-16T04:56:15.629Z,5.65
2024-02-16T04:58:47.084Z,5.71
2024-02-16T05:01:15.424Z,5.67
2024-02-16T05:03:44.711Z,5.62
2024-02-16T05:06:14.186Z,5.62
2024-02-16T05:08:42.658Z,5.55
2024-02-16T05:11:11.243Z,5.55
2024-02-16T05:13:40.840Z,5.61
2024-02-16T05:16:13.039Z,5.63
2024-02-16T05:18:42.246Z,5.78
2024-02-16T05:21:11.125Z,5.82
2024-02-16T05:23:39.239Z,5.73
2024-02-16T05:26:07.292Z,5.71
2024-02-16T05:28:36.124Z,5.74
2024-02-16T05:31:18.744Z,5.73
2024-02-16T05:33:49.979Z,5.81
2024-02-16T05:36:22.201Z,5.73
2024-02-16T05:38:51.484Z,5.67
2024-02-16T05:41:20.057Z,5.63
2024-02-16T05:43:49.896Z,5.57
2024-02-16T05:46:20.300Z,5.53
2024-02-16T05:48:48.662Z,5.50
2024-02-16T05:51:16.880Z,5.51
2024-02-16T05:53:46.651Z,5.61
2024-02-16T05:56:15.218Z,5.57
2024-02-16T05:58:43.519Z,5.46
2024-02-16T06:01:14.029Z,5.49
2024-02-16T06:03:45.797Z,5.60
2024-02-16T06:06:14.750Z,5.74
2024-02-16T06:08:43.421Z,5.89
2024-02-16T06:11:11.841Z,5.91
2024-02-16T06:13:40.672Z,6.02
2024-02-16T06:16:10.402Z,6.12
2024-02-16T06:18:39.003Z,6.08
2024-02-16T06:21:09.144Z,6.10
2024-02-16T06:23:37.136Z,6.14
2024-02-16T06:26:05.629Z,6.04
2024-02-16T06:28:33.692Z,6.03
2024-02-16T06:31:02.011Z,6.00
2024-02-16T06:33:30.149Z,6.05
2024-02-16T06:35:59.714Z,6.01
2024-02-16T06:38:57.876Z,6.08
2024-02-16T06:41:28.554Z,6.09
2024-02-16T06:43:57.033Z,6.04
2024-02-16T06:46:25.978Z,6.05
2024-02-16T06:48:57.669Z,6.02
2024-02-16T06:51:27.677Z,6.05
2024-02-16T06:53:57.850Z,6.12
2024-02-16T06:56:26.751Z,6.08
2024-02-16T06:58:55.188Z,6.16
2024-02-16T07:01:23.881Z,6.17
2024-02-16T07:03:52.242Z,6.22
2024-02-16T07:06:20.557Z,6.28
2024-02-16T07:08:48.803Z,6.23
2024-02-16T07:11:19.999Z,6.34
2024-02-16T07:13:48.076Z,6.46
2024-02-16T07:16:16.536Z,6.47
2024-02-16T07:18:45.252Z,6.42
2024-02-16T07:21:13.757Z,6.48
2024-02-16T07:23:41.877Z,6.49
2024-02-16T07:26:11.695Z,6.64
2024-02-16T07:28:41.514Z,6.65
2024-02-16T07:31:10.401Z,6.68
2024-02-16T07:33:39.251Z,6.69
2024-02-16T07:36:08.279Z,6.82
2024-02-16T07:38:37.822Z,6.87
2024-02-16T07:41:09.518Z,6.99
2024-02-16T07:43:40.310Z,6.97
2024-02-16T07:46:10.202Z,7.06
2024-02-16T07:48:38.279Z,7.10
2024-02-16T07:51:07.055Z,7.06
2024-02-16T07:53:35.590Z,9.14
2024-02-16T07:56:03.827Z,11.19
2024-02-16T07:58:32.818Z,11.72
2024-02-16T08:01:01.130Z,10.98
2024-02-16T08:03:30.943Z,10.92
2024-02-16T08:05:59.413Z,12.21
2024-02-16T08:08:28.400Z,12.58
2024-02-16T08:10:57.088Z,13.14
2024-02-16T08:13:24.204Z,11.91
2024-02-16T08:15:53.367Z,12.81
2024-02-16T08:18:21.788Z,12.24
2024-02-16T08:20:53.118Z,9.25
2024-02-16T08:23:22.634Z,9.09
2024-02-16T08:25:50.798Z,9.96
2024-02-16T08:28:18.970Z,11.00
2024-02-16T08:30:47.324Z,12.72
2024-02-16T08:33:15.503Z,14.20
2024-02-16T08:35:44.237Z,12.65
2024-02-16T08:38:16.298Z,13.58
2024-02-16T08:40:44.844Z,15.00
2024-02-16T08:43:12.783Z,14.93
2024-02-16T08:45:42.924Z,14.41
2024-02-16T08:48:12.607Z,14.47
2024-02-16T08:50:40.655Z,14.73
2024-02-16T08:53:11.665Z,15.25
2024-02-16T08:55:41.204Z,15.47
2024-02-16T08:58:10.090Z,15.58
2024-02-16T09:00:39.008Z,15.33
2024-02-16T09:03:10.020Z,14.18
2024-02-16T09:05:38.481Z,12.21
2024-02-16T09:08:07.953Z,10.06
2024-02-16T09:10:38.475Z,11.35
2024-02-16T09:13:10.501Z,12.73
2024-02-16T09:15:39.501Z,13.97
2024-02-16T09:18:08.341Z,14.56
2024-02-16T09:20:36.635Z,14.53
2024-02-16T09:23:05.426Z,13.51
2024-02-16T09:25:33.945Z,10.86
2024-02-16T09:28:02.348Z,10.21
2024-02-16T09:30:31.921Z,9.48
2024-02-16T09:33:00.027Z,8.91
2024-02-16T09:35:28.435Z,8.33
2024-02-16T09:37:58.871Z,8.44
2024-02-16T09:40:27.639Z,8.62
2024-02-16T09:42:55.593Z,8.66
2024-02-16T09:45:26.010Z,11.06
2024-02-16T09:48:03.551Z,12.64
2024-02-16T09:50:35.944Z,12.46
2024-02-16T09:53:06.721Z,12.83
2024-02-16T09:55:35.333Z,14.12
2024-02-16T09:58:06.637Z,14.50
2024-02-16T10:00:35.065Z,13.38
2024-02-16T10:03:06.531Z,12.10
2024-02-16T10:05:34.584Z,11.12
2024-02-16T10:08:27.646Z,12.93
2024-02-16T10:11:03.796Z,14.50
2024-02-16T10:13:33.527Z,14.05
2024-02-16T10:16:13.136Z,13.62
2024-02-16T10:18:42.948Z,12.77
2024-02-16T10:21:11.545Z,11.98
2024-02-16T10:23:43.929Z,12.68
2024-02-16T10:26:12.795Z,12.13
2024-02-16T10:28:43.305Z,10.97
2024-02-16T10:31:11.995Z,10.04
2024-02-16T10:33:40.518Z,10.05
2024-02-16T10:36:11.577Z,11.34
2024-02-16T10:38:42.244Z,12.93
2024-02-16T10:41:12.147Z,14.38
2024-02-16T10:43:40.337Z,15.70
2024-02-16T10:46:11.083Z,15.47
2024-02-16T10:48:40.613Z,15.28
2024-02-16T10:51:12.600Z,15.58
2024-02-16T10:53:41.200Z,14.80
2024-02-16T10:56:09.754Z,14.39
2024-02-16T10:58:43.011Z,13.42
2024-02-16T11:01:14.735Z,13.63
2024-02-16T11:03:43.013Z,13.44
2024-02-16T11:06:20.935Z,13.86
2024-02-16T11:08:51.896Z,13.15
2024-02-16T11:11:25.931Z,12.19
2024-02-16T11:13:57.219Z,11.37
2024-02-16T11:16:26.832Z,11.08
2024-02-16T11:18:56.261Z,10.84
2024-02-16T11:21:26.997Z,11.21
2024-02-16T11:23:55.040Z,11.35
2024-02-16T11:26:25.385Z,10.63
2024-02-16T11:28:55.081Z,10.28
2024-02-16T11:31:24.159Z,10.40
2024-02-16T11:33:52.396Z,10.62
2024-02-16T11:36:21.431Z,11.69
2024-02-16T11:38:51.389Z,12.94
2024-02-16T11:41:19.333Z,13.62
2024-02-16T11:43:47.975Z,14.04
2024-02-16T11:46:19.056Z,13.41
2024-02-16T11:48:50.079Z,12.35
2024-02-16T11:51:19.470Z,11.91
2024-02-16T11:53:57.614Z,11.54
2024-02-16T11:56:27.650Z,11.65
2024-02-16T11:58:56.527Z,11.30
2024-02-16T12:01:26.393Z,11.53
2024-02-16T12:03:54.753Z,10.77
2024-02-16T12:06:24.256Z,11.09
2024-02-16T12:08:54.714Z,11.03
2024-02-16T12:11:23.248Z,11.08
2024-02-16T12:13:53.653Z,10.85
2024-02-16T12:16:23.044Z,11.32
2024-02-16T12:18:51.363Z,11.60
2024-02-16T12:21:22.396Z,11.81
2024-02-16T12:23:50.953Z,12.15
2024-02-16T12:26:19.819Z,11.42
2024-02-16T12:28:48.110Z,10.98
2024-02-16T12:31:22.410Z,11.12
2024-02-16T12:34:19.115Z,11.21
2024-02-16T12:36:55.253Z,11.17
2024-02-16T12:39:51.798Z,11.32
2024-02-16T12:42:20.373Z,11.14
2024-02-16T12:44:48.663Z,10.89
2024-02-16T12:47:18.578Z,10.58
2024-02-16T12:49:46.747Z,10.41
2024-02-16T12:52:23.701Z,10.22
2024-02-16T12:54:52.918Z,9.91
2024-02-16T12:57:22.081Z,10.10
2024-02-16T12:59:50.487Z,10.03
2024-02-16T13:02:19.999Z,9.99
2024-02-16T13:04:48.777Z,9.91
2024-02-16T13:07:17.639Z,9.88
2024-02-16T13:09:46.860Z,9.78
2024-02-16T13:12:17.482Z,9.78
2024-02-16T13:14:47.083Z,9.77
2024-02-16T13:17:15.228Z,9.86
2024-02-16T13:19:45.052Z,9.88
2024-02-16T13:22:13.335Z,9.85
2024-02-16T13:24:41.776Z,9.99
2024-02-16T13:27:10.988Z,10.13
2024-02-16T13:29:39.085Z,10.20
2024-02-16T13:32:07.774Z,10.30
2024-02-16T13:34:35.750Z,10.37
2024-02-16T13:37:05.625Z,10.28
2024-02-16T13:39:34.002Z,10.23
2024-02-16T13:42:02.530Z,10.06
2024-02-16T13:44:30.853Z,10.08
2024-02-16T13:46:59.499Z,9.87
2024-02-16T13:49:28.352Z,9.94
2024-02-16T13:52:00.257Z,9.88
2024-02-16T13:54:29.987Z,9.90
2024-02-16T13:56:58.647Z,9.86
2024-02-16T13:59:27.254Z,9.89
2024-02-16T14:01:55.877Z,9.98
2024-02-16T14:04:25.512Z,10.14
2024-02-16T14:06:53.848Z,10.76
2024-02-16T14:09:27.359Z,10.97
2024-02-16T14:12:03.138Z,10.59
2024-02-16T14:14:37.334Z,10.42
2024-02-16T14:17:07.528Z,10.45
2024-02-16T14:19:38.939Z,10.45
2024-02-16T14:22:08.579Z,10.58
2024-02-16T14:24:37.116Z,10.79
2024-02-16T14:27:08.522Z,10.83
2024-02-16T14:29:36.688Z,10.67
2024-02-16T14:32:07.336Z,10.41
2024-02-16T14:34:36.819Z,10.58
2024-02-16T14:37:31.176Z,10.75
2024-02-16T14:40:00.631Z,10.81
2024-02-16T14:42:30.664Z,10.85
2024-02-16T14:44:58.924Z,10.58
2024-02-16T14:47:27.277Z,10.38
2024-02-16T14:49:55.786Z,10.34
2024-02-16T14:52:25.162Z,10.26
2024-02-16T14:54:53.533Z,10.40
2024-02-16T14:57:26.299Z,10.41
2024-02-16T14:59:57.916Z,10.49
2024-02-16T15:02:27.175Z,10.34
2024-02-16T15:04:55.481Z,10.34
2024-02-16T15:07:24.342Z,10.32
2024-02-16T15:09:52.833Z,10.41
2024-02-16T15:12:21.476Z,10.27
2024-02-16T15:14:49.798Z,10.12
2024-02-16T15:17:20.577Z,10.16
2024-02-16T15:19:48.884Z,10.18
2024-02-16T15:22:17.035Z,10.09
2024-02-16T15:24:45.804Z,9.93
2024-02-16T15:27:13.937Z,10.03
2024-02-16T15:29:42.271Z,9.90
2024-02-16T15:32:11.149Z,9.79
2024-02-16T15:34:44.947Z,9.74
2024-02-16T15:37:13.833Z,9.60
2024-02-16T15:39:42.326Z,9.47
2024-02-16T15:42:13.135Z,9.52
2024-02-16T15:44:41.754Z,9.37
2024-02-16T15:47:11.982Z,9.30
2024-02-16T15:49:41.958Z,9.20
2024-02-16T15:52:10.183Z,9.21
2024-02-16T15:54:40.176Z,9.25
2024-02-16T15:57:09.088Z,9.18
2024-02-16T15:59:37.363Z,9.14
2024-02-16T16:02:05.698Z,9.09
2024-02-16T16:04:34.124Z,8.90
2024-02-16T16:07:05.302Z,8.90
2024-02-16T16:09:34.356Z,8.95
2024-02-16T16:12:03.355Z,8.91
2024-02-16T16:14:31.825Z,8.89
2024-02-16T16:17:00.424Z,8.87
2024-02-16T16:19:29.590Z,8.87
2024-02-16T16:21:57.949Z,8.85
2024-02-16T16:24:28.941Z,8.77
2024-02-16T16:26:57.542Z,8.85
2024-02-16T16:29:27.146Z,8.82
2024-02-16T16:31:59.370Z,8.77
2024-02-16T16:34:30.583Z,8.79
2024-02-16T16:37:01.314Z,8.71
2024-02-16T16:39:31.497Z,8.83
2024-02-16T16:41:59.890Z,8.75
2024-02-16T16:44:29.362Z,8.72
2024-02-16T16:46:57.538Z,8.76
2024-02-16T16:49:26.666Z,8.77
2024-02-16T16:51:55.006Z,8.75
2024-02-16T16:54:50.423Z,8.75
2024-02-16T16:57:20.382Z,8.71
2024-02-16T16:59:49.175Z,8.61
2024-02-16T17:02:17.642Z,8.75
2024-02-16T17:04:46.278Z,8.77
2024-02-16T17:07:14.615Z,8.80
2024-02-16T17:09:43.882Z,8.74
2024-02-16T17:12:14.185Z,8.79
2024-02-16T17:14:42.342Z,8.73
2024-02-16T17:17:10.917Z,8.68
2024-02-16T17:19:39.303Z,8.65
2024-02-16T17:22:08.194Z,8.66
2024-02-16T17:24:36.456Z,8.65
2024-02-16T17:27:05.180Z,8.72
2024-02-16T17:29:35.729Z,8.64
2024-02-16T17:32:04.179Z,8.70
2024-02-16T17:34:32.891Z,8.66
2024-02-16T17:37:01.535Z,8.61
2024-02-16T17:39:30.351Z,8.83
2024-02-16T17:42:00.801Z,8.72
2024-02-16T17:44:32.704Z,8.71
2024-02-16T17:47:03.950Z,8.73
2024-02-16T17:49:32.368Z,8.72
2024-02-16T17:52:00.944Z,8.89
2024-02-16T17:54:29.508Z,8.89
2024-02-16T17:56:57.596Z,8.80
2024-02-16T17:59:26.134Z,8.78
2024-02-16T18:01:54.706Z,8.78
2024-02-16T18:04:25.142Z,8.76
2024-02-16T18:06:53.575Z,8.69
2024-02-16T18:09:22.588Z,8.70
2024-02-16T18:11:51.767Z,8.77
2024-02-16T18:14:20.296Z,8.67
2024-02-16T18:16:48.579Z,8.67
2024-02-16T18:19:17.112Z,8.79
2024-02-16T18:21:47.460Z,8.70
2024-02-16T18:24:20.190Z,8.58
2024-02-16T18:26:48.531Z,8.56
2024-02-16T18:29:16.907Z,8.59
2024-02-16T18:31:46.201Z,8.67
2024-02-16T18:34:14.301Z,8.61
2024-02-16T18:36:44.103Z,8.68
2024-02-16T18:39:14.048Z,8.69
2024-02-16T18:41:42.772Z,8.62
2024-02-16T18:44:10.833Z,8.70
2024-02-16T18:46:39.757Z,8.78
2024-02-16T18:49:09.535Z,8.86
2024-02-16T18:51:39.310Z,8.92
2024-02-16T18:54:10.726Z,8.98
2024-02-16T18:56:40.619Z,8.91
2024-02-16T18:59:10.545Z,8.88
2024-02-16T19:01:40.216Z,8.94
2024-02-16T19:04:12.109Z,8.92
2024-02-16T19:06:40.695Z,8.82
2024-02-16T19:09:10.288Z,8.82
2024-02-16T19:11:40.509Z,8.89
2024-02-16T19:14:09.442Z,8.93
2024-02-16T19:16:37.902Z,8.99
2024-02-16T19:19:06.168Z,9.06
2024-02-16T19:21:34.884Z,9.03
2024-02-16T19:24:04.835Z,8.88
2024-02-16T19:26:33.149Z,8.92
2024-02-16T19:29:03.375Z,8.96
2024-02-16T19:31:33.498Z,9.05
2024-02-16T19:34:01.778Z,9.05
2024-02-16T19:36:30.971Z,9.01
2024-02-16T19:38:59.540Z,8.95
2024-02-16T19:41:28.099Z,8.96
2024-02-16T19:43:56.355Z,8.92
2024-02-16T19:46:26.230Z,8.92
2024-02-16T19:48:54.650Z,9.01
2024-02-16T19:51:23.740Z,8.94
2024-02-16T19:53:53.008Z,9.03
2024-02-16T19:56:21.793Z,9.00
2024-02-16T19:58:51.482Z,8.94
2024-02-16T20:01:21.832Z,8.86
2024-02-16T20:03:51.959Z,8.87
2024-02-16T20:06:20.749Z,8.82
2024-02-16T20:08:49.819Z,8.80
2024-02-16T20:11:18.592Z,8.84
2024-02-16T20:13:51.088Z,8.86
2024-02-16T20:16:19.808Z,8.93
2024-02-16T20:18:48.520Z,8.89
2024-02-16T20:21:19.622Z,8.92
2024-02-16T20:23:48.040Z,8.93
2024-02-16T20:26:24.188Z,8.94
2024-02-16T20:28:52.907Z,8.87
2024-02-16T20:31:22.008Z,8.91
2024-02-16T20:33:50.784Z,8.79
2024-02-16T20:36:21.188Z,8.82
2024-02-16T20:38:49.789Z,8.86
2024-02-16T20:41:18.596Z,8.75
2024-02-16T20:43:46.962Z,8.69
2024-02-16T20:46:15.515Z,8.76
2024-02-16T20:48:44.159Z,8.71
2024-02-16T20:51:12.403Z,8.69
2024-02-16T20:53:42.314Z,8.68
2024-02-16T20:56:12.324Z,8.65
2024-02-16T20:58:40.904Z,8.64
2024-02-16T21:01:09.679Z,8.63
2024-02-16T21:03:38.885Z,8.60
2024-02-16T21:06:07.843Z,8.61
2024-02-16T21:08:38.779Z,8.57
2024-02-16T21:11:12.229Z,8.54
2024-02-16T21:13:41.383Z,8.51
2024-02-16T21:16:10.105Z,8.43
2024-02-16T21:18:38.627Z,8.42
2024-02-16T21:21:07.493Z,8.39
2024-02-16T21:23:35.981Z,8.42
2024-02-16T21:26:04.425Z,8.49
2024-02-16T21:28:34.299Z,8.46
2024-02-16T21:31:05.289Z,8.47
2024-02-16T21:33:39.503Z,8.51
2024-02-16T21:36:11.701Z,8.51
2024-02-16T21:38:40.881Z,8.52
2024-02-16T21:41:12.006Z,8.51
2024-02-16T21:43:42.026Z,8.54
2024-02-16T21:46:11.035Z,8.51
2024-02-16T21:48:44.452Z,8.46
2024-02-16T21:51:17.466Z,8.39
2024-02-16T21:53:46.675Z,8.39
2024-02-16T21:56:14.879Z,8.37
2024-02-16T21:58:45.305Z,8.36
2024-02-16T22:01:14.456Z,8.34
2024-02-16T22:03:42.778Z,8.31
2024-02-16T22:06:13.024Z,8.30
2024-02-16T22:08:42.254Z,8.33
2024-02-16T22:11:10.739Z,8.29
2024-02-16T22:13:38.907Z,8.36
2024-02-16T22:16:09.426Z,8.37
2024-02-16T22:18:40.765Z,8.39
2024-02-16T22:21:11.526Z,8.42
2024-02-16T22:23:39.902Z,8.40
2024-02-16T22:26:11.449Z,8.45
2024-02-16T22:28:39.924Z,8.46
2024-02-16T22:31:09.991Z,8.43
2024-02-16T22:33:38.629Z,8.42
2024-02-16T22:36:07.850Z,8.43
2024-02-16T22:38:36.441Z,8.36
2024-02-16T22:41:05.128Z,8.41
2024-02-16T22:43:33.661Z,8.43
2024-02-16T22:46:02.640Z,8.41
2024-02-16T22:48:32.661Z,8.40
2024-02-16T22:51:01.243Z,8.36
2024-02-16T22:53:29.726Z,8.32
2024-02-16T22:55:58.511Z,8.36
2024-02-16T22:58:26.812Z,8.39
2024-02-16T23:00:57.805Z,8.37
2024-02-16T23:03:28.415Z,8.39
2024-02-16T23:06:00.984Z,8.47
2024-02-16T23:08:31.318Z,8.44
2024-02-16T23:11:00.721Z,8.46
2024-02-16T23:13:29.669Z,8.52
2024-02-16T23:15:58.179Z,8.53
2024-02-16T23:18:27.090Z,8.58
2024-02-16T23:20:55.309Z,8.56
2024-02-16T23:23:25.624Z,8.53
2024-02-16T23:25:54.094Z,8.56
2024-02-16T23:28:22.285Z,8.51
2024-02-16T23:30:51.283Z,8.50
2024-02-16T23:33:21.337Z,8.52
2024-02-16T23:35:51.288Z,8.56
2024-02-16T23:38:19.904Z,8.56
2024-02-16T23:40:49.462Z,8.45
2024-02-16T23:43:17.548Z,8.51
2024-02-16T23:45:47.681Z,8.46
2024-02-16T23:48:16.018Z,8.56
2024-02-16T23:50:44.429Z,8.54
2024-02-16T23:53:12.676Z,8.59
2024-02-16T23:55:40.804Z,8.52
2024-02-16T23:58:10.577Z,8.56
